Time,TemperatureF,DewpointF,PressureIn,WindDirection,WindDirectionDegrees,WindSpeedMPH,WindSpeedGustMPH,Humidity,HourlyPrecipIn,Conditions,Clouds,dailyrainin,SoftwareType,DateUTC
2013-02-25 08:30:00,20.8,18.1,30.17,WNW,284,0.0,7.0,89,0.00,,,0.00,Wunderground v.1.15,2013-02-25 14:30:00,
2013-02-25 08:35:00,21.4,18.7,30.17,WNW,284,0.0,7.0,89,0.00,,,0.00,Wunderground v.1.15,2013-02-25 14:35:00,
2013-02-25 08:40:00,21.7,18.7,30.17,WNW,284,0.0,7.0,88,0.00,,,0.00,Wunderground v.1.15,2013-02-25 14:40:00,
2013-02-25 08:45:00,21.7,18.4,30.17,WNW,284,0.0,7.0,87,0.00,,,0.00,Wunderground v.1.15,2013-02-25 14:45:00,
2013-02-25 08:50:00,21.7,18.7,30.17,WNW,284,0.0,7.0,88,0.00,,,0.00,Wunderground v.1.15,2013-02-25 14:50:00,
2013-02-25 08:55:00,22.2,19.5,30.18,WNW,284,0.0,7.0,89,0.00,,,0.00,Wunderground v.1.15,2013-02-25 14:55:00,
2013-02-25 09:05:00,23.2,20.7,30.18,WNW,284,0.0,7.0,90,0.00,,,0.00,Wunderground v.1.15,2013-02-25 15:05:00,
2013-02-25 09:10:00,24.1,21.3,30.17,WNW,284,0.0,7.0,89,0.00,,,0.00,Wunderground v.1.15,2013-02-25 15:10:00,
2013-02-25 09:15:00,24.9,21.8,30.17,WNW,284,0.0,7.0,88,0.00,,,0.00,Wunderground v.1.15,2013-02-25 15:15:00,
2013-02-25 09:20:00,25.6,22.3,30.17,WNW,284,0.0,7.0,87,0.00,,,0.00,Wunderground v.1.15,2013-02-25 15:20:00,
2013-02-25 09:30:00,27.3,23.4,30.17,WNW,284,0.0,7.0,85,0.00,,,0.00,Wunderground v.1.15,2013-02-25 15:30:00,
2013-02-25 09:35:00,28.2,24.3,30.17,WNW,284,0.0,7.0,85,0.00,,,0.00,Wunderground v.1.15,2013-02-25 15:35:00,
2013-02-25 09:40:00,29.0,24.8,30.17,WNW,284,0.0,7.0,84,0.00,,,0.00,Wunderground v.1.15,2013-02-25 15:40:00,
2013-02-25 09:45:00,29.3,24.8,30.17,WNW,284,0.0,7.0,83,0.00,,,0.00,Wunderground v.1.15,2013-02-25 15:45:00,
2013-02-25 09:55:00,30.6,25.5,30.17,WNW,284,0.0,7.0,81,0.00,,,0.00,Wunderground v.1.15,2013-02-25 15:55:00,
2013-02-25 10:05:00,31.2,25.7,30.17,WNW,284,0.0,7.0,80,0.00,,,0.00,Wunderground v.1.15,2013-02-25 16:05:00,
2013-02-25 10:10:00,30.6,24.9,30.17,WNW,284,0.0,0.0,79,0.00,,,0.00,Wunderground v.1.15,2013-02-25 16:10:00,
2013-02-25 10:15:00,30.5,25.4,30.17,WNW,284,0.0,0.0,81,0.00,,,0.00,Wunderground v.1.15,2013-02-25 16:15:00,
2013-02-25 10:20:00,30.6,25.5,30.17,WNW,284,0.0,0.0,81,0.00,,,0.00,Wunderground v.1.15,2013-02-25 16:20:00,
2013-02-25 10:30:00,31.0,25.9,30.17,WNW,284,0.0,2.0,81,0.00,,,0.00,Wunderground v.1.15,2013-02-25 16:30:00,
2013-02-25 10:35:00,31.3,25.8,30.16,WNW,284,0.0,2.0,80,0.00,,,0.00,Wunderground v.1.15,2013-02-25 16:35:00,
2013-02-25 10:45:00,31.6,25.5,30.16,WNW,284,1.0,3.0,78,0.00,,,0.00,Wunderground v.1.15,2013-02-25 16:45:00,
2013-02-25 10:50:00,31.0,24.6,30.16,WNW,284,1.0,1.0,77,0.00,,,0.00,Wunderground v.1.15,2013-02-25 16:50:00,
2013-02-25 11:00:00,30.7,24.3,30.16,WNW,284,1.0,2.0,77,0.00,,,0.01,Wunderground v.1.15,2013-02-25 17:00:00,
2013-02-25 11:10:00,31.2,24.5,30.16,WNW,284,1.0,2.0,76,0.00,,,0.01,Wunderground v.1.15,2013-02-25 17:10:00,
2013-02-25 11:15:00,31.0,24.3,30.15,WNW,284,1.0,2.0,76,0.00,,,0.01,Wunderground v.1.15,2013-02-25 17:15:00,
2013-02-25 11:25:00,31.6,24.3,30.16,South,181,1.0,2.0,74,0.00,,,0.01,Wunderground v.1.15,2013-02-25 17:25:00,
2013-02-25 11:30:00,31.7,24.7,30.15,South,180,2.0,2.0,75,0.00,,,0.01,Wunderground v.1.15,2013-02-25 17:30:00,
2013-02-25 11:35:00,32.1,25.1,30.15,South,180,1.0,2.0,75,0.00,,,0.01,Wunderground v.1.15,2013-02-25 17:35:00,
2013-02-25 11:45:00,33.0,25.6,30.15,South,178,1.0,3.0,74,0.00,,,0.01,Wunderground v.1.15,2013-02-25 17:45:00,
2013-02-25 11:55:00,32.9,25.2,30.14,South,178,1.0,2.0,73,0.00,,,0.01,Wunderground v.1.15,2013-02-25 17:55:00,
2013-02-25 12:00:00,33.2,25.5,30.14,South,178,0.0,2.0,73,0.00,,,0.01,Wunderground v.1.15,2013-02-25 18:00:00,
2013-02-25 12:05:00,33.2,24.8,30.14,South,177,1.0,2.0,71,0.00,,,0.01,Wunderground v.1.15,2013-02-25 18:05:00,
2013-02-25 12:15:00,32.9,25.2,30.14,East,99,1.0,3.0,73,0.00,,,0.01,Wunderground v.1.15,2013-02-25 18:15:00,
2013-02-25 12:20:00,32.9,24.9,30.14,ESE,107,1.0,1.0,72,0.00,,,0.01,Wunderground v.1.15,2013-02-25 18:20:00,
2013-02-25 12:25:00,32.9,25.2,30.14,ESE,107,1.0,3.0,73,0.00,,,0.01,Wunderground v.1.15,2013-02-25 18:25:00,
2013-02-25 12:30:00,32.8,24.8,30.13,ESE,107,1.0,1.0,72,0.00,,,0.01,Wunderground v.1.15,2013-02-25 18:30:00,
2013-02-25 12:35:00,32.8,25.1,30.13,East,90,2.0,2.0,73,0.00,,,0.01,Wunderground v.1.15,2013-02-25 18:35:00,
2013-02-25 12:45:00,33.1,25.7,30.13,ESE,105,2.0,2.0,74,0.00,,,0.01,Wunderground v.1.15,2013-02-25 18:45:00,
2013-02-25 12:50:00,32.9,24.9,30.13,SE,129,2.0,5.0,72,0.00,,,0.01,Wunderground v.1.15,2013-02-25 18:50:00,
2013-02-25 12:55:00,32.8,24.8,30.13,SE,132,3.0,5.0,72,0.00,,,0.01,Wunderground v.1.15,2013-02-25 18:55:00,
2013-02-25 13:00:00,33.0,25.0,30.13,SE,134,1.0,3.0,72,0.00,,,0.01,Wunderground v.1.15,2013-02-25 19:00:00,
2013-02-25 13:10:00,33.3,24.9,30.13,SE,136,2.0,2.0,71,0.00,,,0.01,Wunderground v.1.15,2013-02-25 19:10:00,
2013-02-25 13:15:00,33.0,25.0,30.13,SE,134,2.0,4.0,72,0.00,,,0.01,Wunderground v.1.15,2013-02-25 19:15:00,
2013-02-25 13:20:00,32.9,24.9,30.13,ESE,111,2.0,4.0,72,0.00,,,0.01,Wunderground v.1.15,2013-02-25 19:20:00,
2013-02-25 13:30:00,32.5,24.8,30.12,ESE,120,3.0,3.0,73,0.00,,,0.01,Wunderground v.1.15,2013-02-25 19:30:00,
2013-02-25 13:35:00,32.7,24.7,30.12,ESE,119,2.0,5.0,72,0.00,,,0.01,Wunderground v.1.15,2013-02-25 19:35:00,
2013-02-25 13:40:00,32.6,24.6,30.12,ESE,120,2.0,2.0,72,0.00,,,0.01,Wunderground v.1.15,2013-02-25 19:40:00,
2013-02-25 13:45:00,32.9,25.2,30.12,ESE,120,1.0,5.0,73,0.00,,,0.01,Wunderground v.1.15,2013-02-25 19:45:00,
2013-02-25 13:55:00,33.3,25.2,30.12,East,96,1.0,5.0,72,0.00,,,0.01,Wunderground v.1.15,2013-02-25 19:55:00,
2013-02-25 14:00:00,33.5,25.4,30.12,East,96,1.0,1.0,72,0.00,,,0.01,Wunderground v.1.15,2013-02-25 20:00:00,
2013-02-25 14:05:00,33.7,25.3,30.11,East,96,0.0,5.0,71,0.00,,,0.01,Wunderground v.1.15,2013-02-25 20:05:00,
2013-02-25 14:10:00,33.7,25.3,30.11,East,96,0.0,5.0,71,0.00,,,0.01,Wunderground v.1.15,2013-02-25 20:10:00,
2013-02-25 14:20:00,34.6,25.8,30.11,East,84,0.0,5.0,70,0.00,,,0.01,Wunderground v.1.15,2013-02-25 20:20:00,
2013-02-25 14:25:00,34.8,25.7,30.11,East,84,0.0,5.0,69,0.00,,,0.01,Wunderground v.1.15,2013-02-25 20:25:00,
2013-02-25 14:30:00,34.2,25.1,30.11,East,86,1.0,1.0,69,0.00,,,0.01,Wunderground v.1.15,2013-02-25 20:30:00,
2013-02-25 14:40:00,33.7,25.0,30.12,East,83,1.0,1.0,70,0.00,,,0.01,Wunderground v.1.15,2013-02-25 20:40:00,
2013-02-25 14:45:00,33.9,25.1,30.12,East,81,1.0,5.0,70,0.00,,,0.01,Wunderground v.1.15,2013-02-25 20:45:00,
2013-02-25 14:50:00,33.9,25.1,30.12,NE,43,1.0,1.0,70,0.00,,,0.01,Wunderground v.1.15,2013-02-25 20:50:00,
2013-02-25 15:00:00,33.7,25.3,30.12,NE,49,1.0,1.0,71,0.00,,,0.01,Wunderground v.1.15,2013-02-25 21:00:00,
2013-02-25 15:05:00,33.8,25.0,30.12,NE,49,0.0,5.0,70,0.00,,,0.01,Wunderground v.1.15,2013-02-25 21:05:00,
2013-02-25 15:10:00,33.8,25.0,30.12,NE,49,0.0,5.0,70,0.00,,,0.01,Wunderground v.1.15,2013-02-25 21:10:00,
2013-02-25 15:20:00,33.9,25.5,30.11,NE,49,0.0,5.0,71,0.00,,,0.01,Wunderground v.1.15,2013-02-25 21:20:00,
2013-02-25 15:25:00,34.0,25.2,30.11,NE,49,0.0,5.0,70,0.00,,,0.01,Wunderground v.1.15,2013-02-25 21:25:00,
2013-02-25 15:30:00,34.1,25.3,30.11,NE,49,0.0,5.0,70,0.00,,,0.01,Wunderground v.1.15,2013-02-25 21:30:00,
2013-02-25 15:35:00,34.3,25.5,30.11,NE,49,0.0,5.0,70,0.00,,,0.01,Wunderground v.1.15,2013-02-25 21:35:00,
2013-02-25 15:40:00,34.2,25.1,30.11,NE,49,0.0,5.0,69,0.00,,,0.01,Wunderground v.1.15,2013-02-25 21:40:00,
2013-02-25 15:50:00,34.2,25.8,30.11,NE,49,0.0,5.0,71,0.00,,,0.01,Wunderground v.1.15,2013-02-25 21:50:00,
2013-02-25 16:00:00,34.3,26.2,30.12,NE,36,1.0,1.0,72,0.00,,,0.01,Wunderground v.1.15,2013-02-25 22:00:00,
2013-02-25 16:05:00,34.5,26.1,30.12,NE,36,0.0,1.0,71,0.00,,,0.01,Wunderground v.1.15,2013-02-25 22:05:00,
2013-02-25 16:15:00,34.3,25.5,30.11,NE,36,1.0,1.0,70,0.00,,,0.01,Wunderground v.1.15,2013-02-25 22:15:00,
2013-02-25 16:20:00,34.3,25.5,30.11,NE,36,0.0,0.0,70,0.00,,,0.01,Wunderground v.1.15,2013-02-25 22:20:00,
2013-02-25 16:25:00,34.4,25.6,30.10,NE,36,0.0,2.0,70,0.00,,,0.01,Wunderground v.1.15,2013-02-25 22:25:00,
2013-02-25 16:35:00,33.9,25.5,30.11,NE,36,1.0,2.0,71,0.00,,,0.01,Wunderground v.1.15,2013-02-25 22:35:00,
2013-02-25 16:40:00,33.8,25.4,30.11,NE,36,0.0,2.0,71,0.00,,,0.01,Wunderground v.1.15,2013-02-25 22:40:00,
2013-02-25 16:45:00,33.7,25.6,30.11,NE,41,0.0,2.0,72,0.00,,,0.01,Wunderground v.1.15,2013-02-25 22:45:00,
2013-02-25 16:50:00,33.8,25.0,30.11,NE,41,0.0,2.0,70,0.00,,,0.01,Wunderground v.1.15,2013-02-25 22:50:00,
2013-02-25 17:00:00,33.5,25.1,30.11,NE,54,1.0,1.0,71,0.00,,,0.01,Wunderground v.1.15,2013-02-25 23:00:00,
2013-02-25 17:05:00,33.4,25.0,30.11,NE,54,1.0,3.0,71,0.00,,,0.01,Wunderground v.1.15,2013-02-25 23:05:00,
2013-02-25 17:15:00,33.3,25.2,30.11,NE,54,0.0,2.0,72,0.00,,,0.01,Wunderground v.1.15,2013-02-25 23:15:00,
2013-02-25 17:20:00,33.2,25.1,30.11,NE,54,0.0,2.0,72,0.00,,,0.01,Wunderground v.1.15,2013-02-25 23:20:00,
2013-02-25 17:25:00,32.6,24.6,30.11,NNE,25,1.0,3.0,72,0.00,,,0.01,Wunderground v.1.15,2013-02-25 23:25:00,
2013-02-25 17:30:00,32.1,24.7,30.11,NNE,24,2.0,2.0,74,0.00,,,0.01,Wunderground v.1.15,2013-02-25 23:30:00,
2013-02-25 17:40:00,32.5,24.5,30.12,NNE,24,0.0,2.0,72,0.00,,,0.01,Wunderground v.1.15,2013-02-25 23:40:00,
2013-02-25 17:45:00,32.1,24.4,30.12,NNE,24,1.0,2.0,73,0.00,,,0.01,Wunderground v.1.15,2013-02-25 23:45:00,
2013-02-25 17:50:00,32.0,24.6,30.11,NNE,24,1.0,1.0,74,0.00,,,0.01,Wunderground v.1.15,2013-02-25 23:50:00,
2013-02-25 17:55:00,32.0,24.6,30.11,NNE,24,1.0,2.0,74,0.00,,,0.01,Wunderground v.1.15,2013-02-25 23:55:00,
2013-02-25 18:05:00,31.8,24.5,30.11,NNE,24,0.0,2.0,74,0.00,,,0.01,Wunderground v.1.15,2013-02-26 00:05:00,
2013-02-25 18:10:00,31.7,24.4,30.11,NNE,24,0.0,2.0,74,0.00,,,0.01,Wunderground v.1.15,2013-02-26 00:10:00,
2013-02-25 18:20:00,31.4,24.1,30.11,NNE,24,0.0,2.0,74,0.00,,,0.01,Wunderground v.1.15,2013-02-26 00:20:00,
2013-02-25 18:25:00,31.2,23.9,30.11,NNE,24,0.0,2.0,74,0.00,,,0.01,Wunderground v.1.15,2013-02-26 00:25:00,
2013-02-25 18:30:00,30.7,23.7,30.11,NNE,24,0.0,2.0,75,0.00,,,0.01,Wunderground v.1.15,2013-02-26 00:30:00,
2013-02-25 18:35:00,30.1,23.8,30.11,NNE,24,0.0,2.0,77,0.00,,,0.01,Wunderground v.1.15,2013-02-26 00:35:00,
2013-02-25 18:45:00,29.2,22.9,30.11,NNE,24,0.0,2.0,77,0.00,,,0.01,Wunderground v.1.15,2013-02-26 00:45:00,
2013-02-25 18:50:00,28.2,22.2,30.11,NNE,24,0.0,2.0,78,0.00,,,0.01,Wunderground v.1.15,2013-02-26 00:50:00,
2013-02-25 18:55:00,28.0,22.6,30.11,NNE,24,0.0,2.0,80,0.00,,,0.01,Wunderground v.1.15,2013-02-26 00:55:00,
2013-02-25 19:05:00,27.4,22.0,30.11,NNE,24,0.0,2.0,80,0.00,,,0.01,Wunderground v.1.15,2013-02-26 01:05:00,
2013-02-25 19:10:00,26.9,21.8,30.11,NNE,24,0.0,2.0,81,0.00,,,0.01,Wunderground v.1.15,2013-02-26 01:10:00,
2013-02-25 19:15:00,26.9,22.1,30.11,NNE,24,0.0,2.0,82,0.00,,,0.01,Wunderground v.1.15,2013-02-26 01:15:00,
2013-02-25 19:20:00,26.5,21.7,30.11,NNE,24,0.0,2.0,82,0.00,,,0.01,Wunderground v.1.15,2013-02-26 01:20:00,
2013-02-25 19:30:00,25.6,20.9,30.11,NNE,24,0.0,2.0,82,0.00,,,0.01,Wunderground v.1.15,2013-02-26 01:30:00,
2013-02-25 19:35:00,25.4,21.2,30.11,NNE,24,0.0,2.0,84,0.00,,,0.01,Wunderground v.1.15,2013-02-26 01:35:00,
2013-02-25 19:40:00,25.3,21.1,30.12,NNE,24,0.0,2.0,84,0.00,,,0.01,Wunderground v.1.15,2013-02-26 01:40:00,
2013-02-25 19:50:00,24.9,21.0,30.12,NNE,24,0.0,2.0,85,0.00,,,0.01,Wunderground v.1.15,2013-02-26 01:50:00,
2013-02-25 19:55:00,24.9,21.0,30.12,NNE,24,0.0,2.0,85,0.00,,,0.01,Wunderground v.1.15,2013-02-26 01:55:00,
2013-02-25 20:00:00,24.5,20.6,30.12,NNE,24,0.0,2.0,85,0.00,,,0.01,Wunderground v.1.15,2013-02-26 02:00:00,
2013-02-25 20:10:00,23.8,19.9,30.11,NNE,24,0.0,2.0,85,0.00,,,0.01,Wunderground v.1.15,2013-02-26 02:10:00,
2013-02-25 20:15:00,23.3,19.5,30.11,NNE,24,0.0,2.0,85,0.00,,,0.01,Wunderground v.1.15,2013-02-26 02:15:00,
2013-02-25 20:20:00,22.7,19.1,30.11,NNE,24,0.0,2.0,86,0.00,,,0.01,Wunderground v.1.15,2013-02-26 02:20:00,
2013-02-25 20:25:00,22.6,19.3,30.11,NNE,24,0.0,2.0,87,0.00,,,0.01,Wunderground v.1.15,2013-02-26 02:25:00,
2013-02-25 20:35:00,22.9,19.9,30.11,NNE,24,0.0,2.0,88,0.00,,,0.01,Wunderground v.1.15,2013-02-26 02:35:00,
2013-02-25 20:40:00,22.7,19.7,30.11,NNE,24,0.0,2.0,88,0.00,,,0.01,Wunderground v.1.15,2013-02-26 02:40:00,
2013-02-25 20:45:00,22.5,19.5,30.12,NNE,24,0.0,2.0,88,0.00,,,0.01,Wunderground v.1.15,2013-02-26 02:45:00,
2013-02-25 20:55:00,22.1,19.1,30.11,NNE,24,0.0,2.0,88,0.00,,,0.01,Wunderground v.1.15,2013-02-26 02:55:00,
2013-02-25 21:00:00,21.6,18.3,30.11,NNE,24,0.0,2.0,87,0.00,,,0.01,Wunderground v.1.15,2013-02-26 03:00:00,
2013-02-25 21:05:00,21.3,18.3,30.11,NNE,24,0.0,2.0,88,0.00,,,0.01,Wunderground v.1.15,2013-02-26 03:05:00,
2013-02-25 21:10:00,21.1,18.1,30.10,NNE,24,0.0,2.0,88,0.00,,,0.01,Wunderground v.1.15,2013-02-26 03:10:00,
2013-02-25 21:15:00,20.9,18.2,30.10,NNE,24,0.0,2.0,89,0.00,,,0.01,Wunderground v.1.15,2013-02-26 03:15:00,
2013-02-25 21:25:00,21.4,18.9,30.10,NNE,24,0.0,2.0,90,0.00,,,0.01,Wunderground v.1.15,2013-02-26 03:25:00,
2013-02-25 21:35:00,21.3,18.8,30.10,NNE,24,0.0,2.0,90,0.00,,,0.01,Wunderground v.1.15,2013-02-26 03:35:00,
2013-02-25 21:40:00,21.3,18.8,30.10,NNE,24,0.0,2.0,90,0.00,,,0.01,Wunderground v.1.15,2013-02-26 03:40:00,
2013-02-25 21:50:00,21.6,19.1,30.09,NNE,24,0.0,2.0,90,0.00,,,0.01,Wunderground v.1.15,2013-02-26 03:50:00,
2013-02-25 21:55:00,21.3,18.6,30.09,NNE,24,0.0,2.0,89,0.00,,,0.01,Wunderground v.1.15,2013-02-26 03:55:00,
2013-02-25 22:00:00,21.6,19.4,30.10,NNE,24,0.0,2.0,91,0.00,,,0.01,Wunderground v.1.15,2013-02-26 04:00:00,
2013-02-25 22:10:00,21.4,18.9,30.10,NNE,24,0.0,2.0,90,0.00,,,0.01,Wunderground v.1.15,2013-02-26 04:10:00,
2013-02-25 22:15:00,21.4,18.9,30.10,NNE,24,0.0,2.0,90,0.00,,,0.01,Wunderground v.1.15,2013-02-26 04:15:00,
2013-02-25 22:25:00,20.8,17.8,30.10,NNE,24,0.0,2.0,88,0.00,,,0.01,Wunderground v.1.15,2013-02-26 04:25:00,
2013-02-25 22:30:00,20.2,17.5,30.11,NNE,24,0.0,2.0,89,0.00,,,0.01,Wunderground v.1.15,2013-02-26 04:30:00,
2013-02-25 22:35:00,19.9,17.2,30.11,NNE,24,0.0,2.0,89,0.00,,,0.01,Wunderground v.1.15,2013-02-26 04:35:00,
2013-02-25 22:40:00,19.8,17.3,30.11,NNE,24,0.0,2.0,90,0.00,,,0.01,Wunderground v.1.15,2013-02-26 04:40:00,
2013-02-25 22:50:00,20.3,18.1,30.11,NNE,24,0.0,2.0,91,0.00,,,0.01,Wunderground v.1.15,2013-02-26 04:50:00,
2013-02-25 22:55:00,20.5,18.3,30.11,NNE,24,0.0,2.0,91,0.00,,,0.01,Wunderground v.1.15,2013-02-26 04:55:00,
2013-02-25 23:00:00,20.7,18.5,30.12,NNE,24,0.0,2.0,91,0.00,,,0.01,Wunderground v.1.15,2013-02-26 05:00:00,
2013-02-25 23:05:00,20.8,18.6,30.12,NNE,24,0.0,2.0,91,0.00,,,0.01,Wunderground v.1.15,2013-02-26 05:05:00,
2013-02-25 23:15:00,20.7,18.2,30.12,NNE,24,0.0,2.0,90,0.00,,,0.01,Wunderground v.1.15,2013-02-26 05:15:00,
2013-02-25 23:25:00,20.3,17.8,30.11,NNE,24,0.0,2.0,90,0.00,,,0.01,Wunderground v.1.15,2013-02-26 05:25:00,
2013-02-25 23:35:00,20.0,17.3,30.11,NNE,24,0.0,2.0,89,0.00,,,0.01,Wunderground v.1.15,2013-02-26 05:35:00,
2013-02-25 23:40:00,19.8,17.1,30.11,NNE,24,0.0,2.0,89,0.00,,,0.01,Wunderground v.1.15,2013-02-26 05:40:00,
2013-02-25 23:45:00,19.4,16.4,30.11,NNE,24,0.0,2.0,88,0.00,,,0.01,Wunderground v.1.15,2013-02-26 05:45:00,
2013-02-25 23:50:00,19.0,16.0,30.12,NNE,24,0.0,2.0,88,0.00,,,0.01,Wunderground v.1.15,2013-02-26 05:50:00,
2013-02-25 23:55:00,18.8,15.8,30.11,NNE,24,0.0,2.0,88,0.00,,,0.01,Wunderground v.1.15,2013-02-26 05:55:00,